Terminal Aerodrome Forecast
Issued by NWS Upton, NY

Home | Current Version | Previous Version | Text Only | Print | Product List | Glossary On
Versions: 1 2 3 4 5 6 7 8 9 10 11 12 13 14 15 16 17 18 19 20 21 22 23 24 25 26 27 28 29 30 31 32 33 34 35
120
FTUS41 KOKX 282203 AAB
TAFLGA
TAF AMD
KLGA 282203Z 2822/2918 20010KT P6SM SCT040 BKN200
     FM290200 21005KT P6SM VCSH SCT030 BKN090
     FM290600 VRB03KT 4SM SHRA SCT006 BKN012
      TEMPO 2906/2910 2SM TSRA OVC006CB
     FM291000 12010G18KT 2SM SHRA BR OVC012 PROB30 2910/2914 1SM
      +TSRA OVC006CB
     FM291600 35012G18KT 5SM -RA BR OVC015=

USA.gov is the U.S. government's official web portal to all federal, state and local government web resources and services.